• Join FlightAware (Why Join?)
  • Login
  • US Flag 
01:24PM EDT


 

Airport Tracker/Info


-or-


 

Live Flight TrackerFlight Track Log ✈ SKW4564 ✈ 14-Feb-2014 ✈ KSEA - KLAX

Flight Track Log - Related Links

Times and Time Zones

All times are in EST time to prevent confusion due to time zone crossing. See the SKW4564 flight status page for this flight to view local times or setup timezone preferences in your user account.

Time Position Orientation Groundspeed Altitude Reporting Facility
EST Latitude Longitude Course Direction KTS MPH feet Rate Location/Type
04:23PM 47.4358 -122.3133 181° South 147 169 1,300  Level Seattle Center
04:23PM 47.3983 -122.3142 181° South 181 208 3,200 2,220 Climbing Seattle Center
04:24PM 47.3311 -122.3119 179° South 250 288 5,400 2,520 Climbing Seattle Center
04:25PM 47.2592 -122.3092 178° South 277 319 8,300 2,880 Climbing Seattle Center
04:26PM 47.2372 -122.3069 176° South 265 305 9,200 2,460 Climbing Seattle Center
04:27PM 47.1628 -122.2575 156° South 308 354 11,600 2,100 Climbing Seattle Center
04:28PM 47.0783 -122.2111 159° South 329 379 13,500 2,280 Climbing Seattle Center
04:29PM 46.9886 -122.1694 162° South 338 389 16,300 2,520 Climbing Seattle Center
04:30PM 46.8911 -122.1231 162° South 341 392 18,700 2,160 Climbing Seattle Center
04:31PM 46.7992 -122.0758 161° South 349 402 20,700 1,920 Climbing Seattle Center
04:32PM 46.7036 -122.0278 161° South 362 417 22,700 1,860 Climbing Seattle Center
04:33PM 46.6056 -121.9842 163° South 370 426 24,500 1,620 Climbing Seattle Center
04:34PM 46.5100 -121.9628 171° South 350 403 26,000 1,320 Climbing Seattle Center
04:35PM 46.4114 -121.9383 170° South 358 412 27,200 1,560 Climbing Seattle Center
04:36PM 46.3114 -121.9144 171° South 364 419 29,200 1,800 Climbing Seattle Center
04:37PM 46.2064 -121.8894 171° South 355 409 30,900 1,260 Climbing Seattle Center
04:38PM 46.1081 -121.8650 170° South 359 413 31,800 720 Climbing Seattle Center
04:39PM 46.0053 -121.8414 171° South 372 428 32,400 780 Climbing Seattle Center
04:40PM 45.8972 -121.8164 171° South 389 448 33,400 1,140 Climbing Seattle Center
04:41PM 45.7925 -121.7908 170° South 386 444 34,800 1,380 Climbing Seattle Center
04:42PM 45.6900 -121.7658 170° South 377 434 36,300 1,080 Climbing Seattle Center
04:43PM 45.5914 -121.7433 171° South 364 419 37,000 300 Climbing Seattle Center
04:44PM 45.4911 -121.7192 170° South 366 421 37,000  Level Seattle Center
04:45PM 45.3858 -121.6956 171° South 380 437 37,000  Level Seattle Center
04:46PM 45.2606 -121.6658 171° South 383 441 37,000  Level Seattle Center
04:47PM 45.1550 -121.6411 171° South 386 444 37,000  Level Seattle Center
04:48PM 45.0481 -121.6175 171° South 389 448 37,000  Level Seattle Center
04:49PM 44.9397 -121.5922 171° South 394 453 37,000  Level Seattle Center
04:50PM 44.8222 -121.5664 171° South 401 461 37,000  Level Seattle Center
04:51PM 44.7089 -121.5400 171° South 410 472 37,000  Level Seattle Center
04:52PM 44.5939 -121.5136 171° South 417 480 37,000  Level Seattle Center
04:53PM 44.4803 -121.4883 171° South 417 480 37,000  Level Seattle Center
04:54PM 44.3675 -121.4628 171° South 415 478 37,000  Level Seattle Center
04:55PM 44.2617 -121.4375 170° South 412 474 37,000  Level Seattle Center
04:56PM 44.1269 -121.4081 171° South 411 473 37,000  Level Seattle Center
04:57PM 44.0156 -121.3839 171° South 409 471 37,000  Level Seattle Center
04:58PM 43.9033 -121.3586 171° South 409 471 37,000  Level Seattle Center
04:59PM 43.8019 -121.3367 171° South 416 479 37,000  Level Seattle Center
05:00PM 43.6650 -121.3061 171° South 417 480 37,000  Level Seattle Center
05:01PM 43.5514 -121.2808 171° South 414 476 37,000  Level Seattle Center
05:02PM 43.4375 -121.2556 171° South 415 478 37,000  Level Seattle Center
05:03PM 43.3219 -121.2300 171° South 420 483 37,000  Level Seattle Center
05:04PM 43.2067 -121.2067 172° South 419 482 37,000  Level Seattle Center
05:05PM 43.0889 -121.1808 171° South 426 490 37,000  Level Seattle Center
05:06PM 42.9722 -121.1544 171° South 425 489 37,000  Level Seattle Center
05:07PM 42.8544 -121.1283 171° South 428 493 37,000  Level Seattle Center
05:09PM 42.7375 -121.1056 172° South 425 489 37,000  Level Seattle Center
05:10PM 42.6200 -121.0794 171° South 427 491 37,000  Level Seattle Center
05:11PM 42.5028 -121.0553 171° South 424 488 37,000  Level Seattle Center
05:12PM 42.3847 -121.0303 171° South 428 493 37,000  Level Seattle Center
05:13PM 42.2669 -121.0044 171° South 427 491 37,000  Level Seattle Center
05:14PM 42.1503 -120.9803 171° South 425 489 37,000  Level Seattle Center
05:15PM 42.0089 -120.9506 171° South 427 491 37,000  Level Seattle Center
05:16PM 41.8892 -120.9236 170° South 434 499 37,000  Level Seattle Center
05:17PM 41.7711 -120.9000 172° South 429 494 37,000  Level Seattle Center
05:18PM 41.6533 -120.8767 172° South 427 491 37,000  Level Seattle Center
05:19PM 41.5344 -120.8525 171° South 429 494 37,000  Level Seattle Center
05:20PM 41.4150 -120.8261 171° South 433 498 37,000  Level Seattle Center
05:21PM 41.2953 -120.8017 171° South 435 501 37,000  Level Seattle Center
05:22PM 41.1736 -120.7767 171° South 439 505 37,000  Level Seattle Center
05:23PM 41.0522 -120.7528 172° South 441 507 37,000  Level Seattle Center
05:24PM 40.9314 -120.7281 171° South 440 506 37,000  Level Seattle Center
05:25PM 40.8103 -120.6972 169° South 443 510 37,000  Level Seattle Center
05:26PM 40.6872 -120.6669 169° South 447 514 37,000  Level Seattle Center
05:27PM 40.5653 -120.6353 169° South 446 513 37,000  Level Seattle Center
05:28PM 40.4431 -120.6072 170° South 446 513 37,000  Level Seattle Center
05:29PM 40.2978 -120.5728 170° South 449 517 37,000  Level Seattle Center
05:30PM 40.1733 -120.5428 170° South 453 521 37,000  Level Seattle Center
05:31PM 40.0494 -120.5136 170° South 451 519 37,000  Level Seattle Center
05:32PM 39.8839 -120.4778 171° South 455 524 37,000  Level Oakland Center
05:33PM 39.7594 -120.4475 169° South 455 524 37,000  Level Oakland Center
05:34PM 39.6108 -120.4131 170° South 451 519 37,000  Level Oakland Center
05:35PM 39.4842 -120.3844 170° South 457 526 37,000  Level Oakland Center
05:36PM 39.3594 -120.3558 170° South 457 526 37,000  Level Oakland Center
05:37PM 39.2350 -120.3272 170° South 453 521 37,000  Level Oakland Center
05:38PM 39.1103 -120.2978 170° South 453 521 37,000  Level Oakland Center
05:40PM 38.9864 -120.2700 170° South 451 519 37,000  Level Oakland Center
05:41PM 38.8608 -120.2414 170° South 453 521 37,000  Level Oakland Center
05:42PM 38.7369 -120.2136 170° South 451 519 37,000  Level Oakland Center
05:43PM 38.5864 -120.1800 170° South 454 522 37,000  Level Oakland Center
05:44PM 38.4606 -120.1525 170° South 456 525 37,000  Level Oakland Center
05:45PM 38.3361 -120.1244 170° South 453 521 37,000  Level Oakland Center
05:46PM 38.2111 -120.0972 170° South 453 521 37,000  Level Oakland Center
05:47PM 38.0842 -120.0686 170° South 460 529 37,000  Level Oakland Center
05:48PM 37.9608 -120.0408 170° South 452 520 37,000  Level Oakland Center
05:49PM 37.8336 -120.0139 171° South 458 527 37,000  Level Oakland Center
05:50PM 37.7081 -119.9853 170° South 458 527 37,000  Level Oakland Center
05:51PM 37.5569 -119.9517 170° South 460 529 37,000  Level Oakland Center
05:52PM 37.4303 -119.9250 171° South 459 528 37,000  Level Oakland Center
05:53PM 37.3028 -119.8972 170° South 461 531 37,000  Level Oakland Center
05:54PM 37.1769 -119.8708 171° South 459 528 37,000  Level Oakland Center
05:55PM 37.0631 -119.8450 170° South 450 518 37,000  Level Oakland Center
05:56PM 36.9175 -119.8142 170° South 443 510 37,000  Level Oakland Center
05:57PM 36.7953 -119.7875 170° South 445 512 37,000  Level Oakland Center
05:58PM 36.6742 -119.7614 170° South 442 509 37,000  Level Oakland Center
05:59PM 36.5661 -119.6747 147° Southeast 460 529 37,000 -300 Level Oakland Center
06:00PM 36.4575 -119.5917 148° Southeast 459 528 36,400 -660 Descending Oakland Center
06:01PM 36.3392 -119.5647 170° South 434 499 35,700 -600 Descending Oakland Center
06:02PM 36.2236 -119.5828 187° South 418 481 35,200 -420 Descending Oakland Center
06:03PM 36.0797 -119.6019 186° South 429 494 34,900 -120 Descending Oakland Center
06:04PM 35.9614 -119.6136 185° South 428 493 35,000  Climbing Oakland Center
06:05PM 35.8444 -119.6206 183° South 421 484 35,000  Level Oakland Center
06:06PM 35.7267 -119.6247 182° South 421 484 35,000  Level Oakland Center
06:07PM 35.6061 -119.6292 182° South 427 491 35,000  Level Oakland Center
06:08PM 35.4856 -119.6319 181° South 430 495 35,000  Level Oakland Center
06:09PM 35.3647 -119.6375 182° South 431 496 35,000 -660 Level Oakland Center
06:10PM 35.2453 -119.6206 173° South 436 502 33,700 -1,860 Descending Oakland Center
06:11PM 35.1164 -119.5289 150° Southeast 449 517 31,200 -2,280 Descending Oakland Center
06:12PM 35.0172 -119.4400 144° Southeast 445 512 29,100 -2,160 Descending Oakland Center
06:13PM 34.9181 -119.3531 144° Southeast 441 507 26,800 -2,400 Descending Oakland Center
06:15PM 34.8178 -119.2681 145° Southeast 440 506 24,200 -2,460 Descending Oakland Center
06:16PM 34.7175 -119.1836 145° Southeast 438 504 21,800 -2,400 Descending Oakland Center
06:17PM 34.5878 -119.0744 145° Southeast 432 497 18,500 -2,400 Descending Los Angeles Center
06:18PM 34.4794 -118.9831 145° Southeast 394 453 16,000 -2,100 Descending Los Angeles Center
06:19PM 34.3953 -118.9114 145° Southeast 369 425 14,200 -1,380 Descending Los Angeles Center
06:20PM 34.3114 -118.8631 155° Southeast 333 383 13,200 -840 Descending Los Angeles Center
06:21PM 34.2278 -118.8325 163° South 312 359 12,500 -840 Descending Los Angeles Center
06:22PM 34.1464 -118.8036 164° South 307 353 11,500 -960 Descending Los Angeles Center
06:23PM 34.0569 -118.7614 159° South 314 361 10,600 -720 Descending Los Angeles Center
06:24PM 34.0297 -118.6578 108° East 312 359 10,100 -660 Descending Los Angeles Center
06:25PM 34.0211 -118.5661 96° East 280 322 9,300 -1,020 Descending Los Angeles Center
06:26PM 34.0122 -118.4744 97° East 257 296 8,000 -1,260 Descending Los Angeles Center
06:27PM 34.0267 -118.4000 77° East 250 288 6,700 -1,500 Descending Los Angeles Center
06:28PM 34.0436 -118.3214 75° East 244 281 4,900 -1,560 Descending Los Angeles Center
06:29PM 34.0478 -118.2464 86° East 250 288 3,500 -1,020 Descending Los Angeles Center
06:30PM 33.9808 -118.2400 175° South 230 265 2,800 -780 Descending Los Angeles Center
06:31PM 33.9614 -118.3003 249° West 207 238 1,900 -900 Descending Los Angeles Center
06:32PM 33.9578 -118.3519 265° West 177 204 1,000 -780 Descending Los Angeles Center
06:33PM 33.9536 -118.3969 264° West 153 176 300 -420 Descending Los Angeles Center
06:35PM 33.9492 -118.4403 263° West 149 171 200 -120 Descending Los Angeles Center